Time;durP1;ratioP1;P1;durP2;ratioP2;P2;SDS_P1;SDS_P2;PMS_P1;PMS_P2;Temp;Humidity;BMP_temperature;BMP_pressure;BME280_temperature;BME280_humidity;BME280_pressure;Samples;Min_cycle;Max_cycle;Signal;HPM_P1;HPM_P2
2022/09/10 00:00:26;;;;;;;1.10;0.25;;;13.00;99.90;;;;;;6224609;23;19997;-85
2022/09/10 00:02:52;;;;;;;0.80;0.30;;;13.00;99.90;;;;;;6224212;23;20051;-85
2022/09/10 00:05:17;;;;;;;0.70;0.47;;;13.00;99.90;;;;;;6227941;23;20055;-85
2022/09/10 00:07:43;;;;;;;0.43;0.35;;;12.90;99.90;;;;;;6224437;23;20079;-85
2022/09/10 00:10:10;;;;;;;0.80;0.45;;;13.00;99.90;;;;;;6195739;23;20001;-85
2022/09/10 00:12:36;;;;;;;0.30;0.25;;;13.00;99.90;;;;;;6226530;23;20005;-85
2022/09/10 00:15:04;;;;;;;1.25;0.40;;;12.90;99.90;;;;;;6199707;23;20348;-85
2022/09/10 00:17:31;;;;;;;0.40;0.40;;;12.90;99.90;;;;;;6222597;22;20066;-85
2022/09/10 00:19:58;;;;;;;0.30;0.20;;;12.90;99.90;;;;;;6196997;23;20011;-85
2022/09/10 00:22:24;;;;;;;0.90;0.32;;;12.90;99.90;;;;;;6198836;23;20009;-85
2022/09/10 00:24:54;;;;;;;1.00;0.47;;;12.80;99.90;;;;;;6195614;23;20013;-85
2022/09/10 00:27:20;;;;;;;1.10;0.30;;;12.80;99.90;;;;;;6220629;23;20000;-86
2022/09/10 00:29:45;;;;;;;0.63;0.20;;;12.90;99.90;;;;;;6224699;23;20044;-85
2022/09/10 00:32:11;;;;;;;0.65;0.50;;;12.90;99.90;;;;;;6224401;23;20004;-85
2022/09/10 00:34:37;;;;;;;0.85;0.20;;;12.90;99.90;;;;;;6195691;23;20396;-86
2022/09/10 00:37:02;;;;;;;1.58;0.40;;;12.90;99.90;;;;;;6194685;23;20008;-86
2022/09/10 00:39:28;;;;;;;1.85;0.20;;;12.90;99.90;;;;;;6194763;23;20001;-86
2022/09/10 00:41:54;;;;;;;0.17;0.17;;;12.90;99.90;;;;;;6194746;23;20043;-85
2022/09/10 00:44:38;;;;;;;1.52;0.20;;;12.90;99.90;;;;;;6221575;23;20020;-85
2022/09/10 00:47:17;;;;;;;1.55;0.30;;;12.80;99.90;;;;;;6195270;23;20055;-85
2022/09/10 00:49:47;;;;;;;0.52;0.30;;;12.80;99.90;;;;;;6220931;23;20009;-85
2022/09/10 00:52:43;;;;;;;0.30;0.30;;;12.70;99.90;;;;;;6219931;22;20045;-83
2022/09/10 00:59:19;;;;;;;5.10;0.40;;;12.70;99.90;;;;;;6105385;23;20090;-83
2022/09/10 01:19:58;;;;;;;0.28;0.20;;;12.60;99.90;;;;;;5888587;24;20413;-83
2022/09/10 01:26:28;;;;;;;0.98;0.30;;;12.60;99.90;;;;;;6065133;23;20252;-81
2022/09/10 01:29:57;;;;;;;2.85;0.60;;;12.70;99.90;;;;;;6056305;23;20011;-80
2022/09/10 01:32:59;;;;;;;1.52;0.30;;;12.80;99.90;;;;;;6029950;23;20016;-84
2022/09/10 01:36:05;;;;;;;3.05;0.50;;;12.80;99.90;;;;;;6053091;23;20024;-81
2022/09/10 01:39:05;;;;;;;0.82;0.50;;;12.90;99.90;;;;;;6036217;23;20000;-82
2022/09/10 01:41:31;;;;;;;0.35;0.30;;;13.00;99.90;;;;;;6058421;23;19998;-81
2022/09/10 01:44:56;;;;;;;0.30;0.30;;;13.10;99.90;;;;;;6098559;23;20108;-81
2022/09/10 01:48:10;;;;;;;0.60;0.40;;;13.10;99.90;;;;;;6144918;23;20008;-81
2022/09/10 01:51:34;;;;;;;0.70;0.50;;;13.20;99.90;;;;;;6000445;23;19996;-81
2022/09/10 01:54:46;;;;;;;0.30;0.30;;;13.20;99.90;;;;;;5862713;24;20026;-81
2022/09/10 02:01:36;;;;;;;1.75;0.30;;;13.30;99.90;;;;;;6125124;23;20045;-83
2022/09/10 02:04:18;;;;;;;1.13;0.40;;;13.30;99.90;;;;;;6121467;23;19997;-82
2022/09/10 02:07:05;;;;;;;0.55;0.30;;;13.40;99.90;;;;;;6105489;23;20092;-83
2022/09/10 02:09:39;;;;;;;0.80;0.40;;;13.40;99.90;;;;;;6046099;23;20353;-83
2022/09/10 02:12:32;;;;;;;0.30;0.30;;;13.40;99.90;;;;;;6125221;23;20010;-83
2022/09/10 02:15:07;;;;;;;2.05;0.50;;;13.40;99.90;;;;;;6136409;23;20009;-79
2022/09/10 02:17:45;;;;;;;0.57;0.30;;;13.40;99.90;;;;;;6093470;23;20024;-83
2022/09/10 02:20:15;;;;;;;0.30;0.30;;;13.40;99.90;;;;;;6099905;23;20504;-84
2022/09/10 02:22:49;;;;;;;0.68;0.30;;;13.30;99.90;;;;;;6133536;23;20515;-83
2022/09/10 02:25:15;;;;;;;0.73;0.43;;;13.20;99.90;;;;;;6124664;23;20086;-83
2022/09/10 02:27:42;;;;;;;1.98;0.70;;;13.10;99.90;;;;;;6125825;23;20009;-84
2022/09/10 02:30:11;;;;;;;2.50;0.82;;;13.00;99.90;;;;;;6130503;23;20001;-83
2022/09/10 02:32:37;;;;;;;2.00;0.90;;;12.90;99.90;;;;;;6210596;23;20019;-81
2022/09/10 02:35:03;;;;;;;0.63;0.32;;;12.80;99.90;;;;;;6211546;23;20005;-82
2022/09/10 02:37:29;;;;;;;1.08;0.40;;;12.80;99.90;;;;;;6187374;23;20005;-83
2022/09/10 02:39:55;;;;;;;1.98;0.50;;;12.70;99.90;;;;;;6188523;23;20005;-83
2022/09/10 02:42:21;;;;;;;1.65;0.40;;;12.70;99.90;;;;;;6186930;23;20043;-83
2022/09/10 02:44:47;;;;;;;0.30;0.30;;;12.70;99.90;;;;;;6187508;23;20024;-82
2022/09/10 02:47:12;;;;;;;1.10;0.47;;;12.60;99.90;;;;;;6189431;23;20327;-82
2022/09/10 02:49:39;;;;;;;1.13;0.50;;;12.50;99.90;;;;;;6186680;23;20068;-82
2022/09/10 02:52:05;;;;;;;1.27;0.40;;;12.50;99.90;;;;;;6160179;23;20005;-83
2022/09/10 02:54:32;;;;;;;0.30;0.30;;;12.50;99.90;;;;;;6159911;23;20013;-82
2022/09/10 02:56:57;;;;;;;0.88;0.47;;;12.50;99.90;;;;;;6190191;23;19997;-83
2022/09/10 02:59:23;;;;;;;0.43;0.40;;;12.40;99.90;;;;;;6193133;23;20001;-83
2022/09/10 03:01:49;;;;;;;0.73;0.55;;;12.40;99.90;;;;;;6197684;23;19997;-83
2022/09/10 03:04:16;;;;;;;1.55;0.65;;;12.40;99.90;;;;;;6187914;23;20001;-82
2022/09/10 03:06:48;;;;;;;1.30;0.40;;;12.30;99.90;;;;;;6186333;23;20060;-82
2022/09/10 03:09:13;;;;;;;0.32;0.32;;;12.30;99.90;;;;;;6186471;23;20005;-83
2022/09/10 03:11:40;;;;;;;1.17;0.55;;;12.20;99.90;;;;;;6186554;23;20053;-83
2022/09/10 03:14:08;;;;;;;1.00;0.47;;;12.20;99.90;;;;;;6186378;23;20036;-83
2022/09/10 03:16:34;;;;;;;0.65;0.60;;;12.20;99.90;;;;;;6172091;23;19997;-82
2022/09/10 03:18:59;;;;;;;0.70;0.50;;;12.20;99.90;;;;;;6203983;23;20005;-83
2022/09/10 03:21:25;;;;;;;1.38;0.98;;;12.20;99.90;;;;;;6186405;23;20072;-82
2022/09/10 03:23:52;;;;;;;0.40;0.40;;;12.10;99.90;;;;;;6186039;23;20080;-82
2022/09/10 03:26:19;;;;;;;0.30;0.30;;;12.20;99.90;;;;;;6186233;23;20009;-83
2022/09/10 03:28:46;;;;;;;0.75;0.40;;;12.20;99.90;;;;;;6193999;23;20048;-82
2022/09/10 03:31:13;;;;;;;1.55;0.40;;;12.10;99.90;;;;;;6185962;23;20001;-82
2022/09/10 03:33:42;;;;;;;0.80;0.30;;;12.20;99.90;;;;;;6186333;23;20102;-82
2022/09/10 03:36:09;;;;;;;1.95;0.52;;;12.20;99.90;;;;;;6159266;23;20009;-83
2022/09/10 03:38:35;;;;;;;1.05;0.30;;;12.30;99.90;;;;;;6186329;23;20109;-82
2022/09/10 03:41:01;;;;;;;0.25;0.25;;;12.30;99.90;;;;;;6185580;23;20009;-83
2022/09/10 03:43:28;;;;;;;1.27;0.50;;;12.30;99.90;;;;;;6185798;23;20493;-82
2022/09/10 03:45:54;;;;;;;1.83;0.40;;;12.30;99.90;;;;;;6185990;23;20135;-82
2022/09/10 03:48:20;;;;;;;1.23;0.50;;;12.40;99.90;;;;;;6185867;23;20001;-83
2022/09/10 03:50:47;;;;;;;0.22;0.20;;;12.40;99.90;;;;;;6186090;23;20009;-83
2022/09/10 03:53:14;;;;;;;1.83;0.43;;;12.40;99.90;;;;;;6185780;23;20087;-83
2022/09/10 03:55:43;;;;;;;0.30;0.30;;;12.50;99.90;;;;;;6189376;23;20001;-85
2022/09/10 03:58:08;;;;;;;0.77;0.63;;;12.50;99.90;;;;;;6186162;23;20091;-83
2022/09/10 04:00:34;;;;;;;0.55;0.30;;;12.50;99.90;;;;;;6186652;23;20500;-83
2022/09/10 04:03:01;;;;;;;0.65;0.38;;;12.60;99.90;;;;;;6160960;23;20012;-83
2022/09/10 04:05:27;;;;;;;1.48;0.50;;;12.60;99.90;;;;;;6188635;23;20032;-83
2022/09/10 04:07:54;;;;;;;0.40;0.32;;;12.70;99.90;;;;;;6161762;23;20383;-83
2022/09/10 04:10:23;;;;;;;0.40;0.40;;;12.80;99.90;;;;;;6160993;23;20008;-83
2022/09/10 04:12:48;;;;;;;2.28;0.30;;;12.80;99.90;;;;;;6188362;23;20059;-82
2022/09/10 04:15:14;;;;;;;0.65;0.52;;;13.00;99.90;;;;;;6188719;23;20008;-84
2022/09/10 04:17:40;;;;;;;0.65;0.40;;;13.00;99.90;;;;;;6188031;23;20436;-84
2022/09/10 04:20:07;;;;;;;1.05;0.60;;;13.00;99.90;;;;;;6188731;23;20007;-84
2022/09/10 04:22:33;;;;;;;0.47;0.32;;;13.00;99.90;;;;;;6187802;23;20324;-86
2022/09/10 04:24:59;;;;;;;1.33;0.50;;;13.00;99.90;;;;;;6187767;23;20011;-84
2022/09/10 04:27:25;;;;;;;0.35;0.30;;;13.00;99.90;;;;;;6166585;23;20033;-82
2022/09/10 04:29:51;;;;;;;0.52;0.30;;;13.00;99.90;;;;;;6202177;23;20005;-84
2022/09/10 04:32:17;;;;;;;0.45;0.40;;;13.00;99.90;;;;;;6165900;23;20080;-84
2022/09/10 04:34:43;;;;;;;0.35;0.30;;;13.00;99.90;;;;;;6189164;23;20440;-83
2022/09/10 04:37:09;;;;;;;0.40;0.40;;;13.10;99.90;;;;;;6190686;23;20001;-83
2022/09/10 04:39:35;;;;;;;1.75;0.40;;;13.10;99.90;;;;;;6169170;23;20005;-82
2022/09/10 04:42:02;;;;;;;0.80;0.57;;;13.10;99.90;;;;;;6189711;23;20431;-84
2022/09/10 04:44:28;;;;;;;1.67;0.60;;;13.20;99.90;;;;;;6193462;23;20005;-83
2022/09/10 04:46:54;;;;;;;0.30;0.30;;;13.20;99.90;;;;;;6163316;23;20029;-84
2022/09/10 04:49:20;;;;;;;0.15;0.15;;;13.30;99.90;;;;;;6189975;23;20474;-84
2022/09/10 04:51:46;;;;;;;0.40;0.40;;;13.30;99.90;;;;;;6162654;23;20005;-84
2022/09/10 04:54:14;;;;;;;0.20;0.20;;;13.40;99.90;;;;;;6161031;23;20507;-84
2022/09/10 04:56:41;;;;;;;0.63;0.20;;;13.50;99.90;;;;;;6187685;23;20000;-85
2022/09/10 04:59:06;;;;;;;0.40;0.30;;;13.50;99.90;;;;;;6189727;23;20001;-84
2022/09/10 05:01:32;;;;;;;1.45;0.50;;;13.60;99.90;;;;;;6190321;23;20008;-83
2022/09/10 05:03:58;;;;;;;0.32;0.30;;;13.60;99.90;;;;;;6190305;23;20009;-84
2022/09/10 05:06:23;;;;;;;1.02;0.30;;;13.60;99.90;;;;;;6189975;23;20005;-84
2022/09/10 05:08:49;;;;;;;0.63;0.38;;;13.60;99.90;;;;;;6201587;23;20032;-82
2022/09/10 05:11:18;;;;;;;1.20;0.30;;;13.60;99.90;;;;;;6185773;23;19993;-80
2022/09/10 05:13:44;;;;;;;0.38;0.30;;;13.60;99.90;;;;;;6204100;23;20060;-83
2022/09/10 05:16:10;;;;;;;1.55;0.30;;;13.60;99.90;;;;;;6205567;23;20008;-83
2022/09/10 05:18:36;;;;;;;0.63;0.30;;;13.60;99.90;;;;;;6199741;23;20001;-84
2022/09/10 05:21:04;;;;;;;0.50;0.30;;;13.60;99.90;;;;;;6201773;23;20032;-84
2022/09/10 05:23:30;;;;;;;0.75;0.28;;;13.70;99.90;;;;;;6206873;23;20306;-84
2022/09/10 05:25:56;;;;;;;1.40;0.40;;;13.80;99.90;;;;;;6203577;23;20020;-85
2022/09/10 05:28:21;;;;;;;0.60;0.30;;;13.80;99.90;;;;;;6200776;23;20014;-83
2022/09/10 05:30:47;;;;;;;0.70;0.40;;;13.90;99.90;;;;;;6197353;23;20005;-84
2022/09/10 05:33:14;;;;;;;0.65;0.30;;;14.00;99.90;;;;;;6170129;23;20004;-84
2022/09/10 05:35:39;;;;;;;0.47;0.30;;;14.10;99.90;;;;;;6192645;23;20005;-84
2022/09/10 05:38:07;;;;;;;0.98;0.30;;;14.20;99.90;;;;;;6166331;23;20048;-84
2022/09/10 05:40:33;;;;;;;1.98;0.47;;;14.30;99.90;;;;;;6191356;23;19997;-84
2022/09/10 05:42:59;;;;;;;1.45;0.55;;;14.40;99.90;;;;;;6191024;23;19997;-84
2022/09/10 05:45:25;;;;;;;1.60;0.40;;;14.40;99.90;;;;;;6190210;23;20001;-83
2022/09/10 05:47:51;;;;;;;1.10;0.40;;;14.50;99.90;;;;;;6188392;23;20000;-83
2022/09/10 05:50:18;;;;;;;1.65;0.52;;;14.60;99.90;;;;;;6161808;23;20009;-85
2022/09/10 05:52:44;;;;;;;1.33;0.43;;;14.60;99.90;;;;;;6162148;23;20005;-83
2022/09/10 05:55:10;;;;;;;0.70;0.50;;;14.60;99.90;;;;;;6187822;23;20016;-84
2022/09/10 05:57:36;;;;;;;2.63;0.57;;;14.60;99.90;;;;;;6166813;23;20008;-84
2022/09/10 06:00:05;;;;;;;1.23;0.57;;;14.70;99.80;;;;;;6196587;23;19997;-84
2022/09/10 06:02:33;;;;;;;0.80;0.52;;;14.70;99.60;;;;;;6198405;23;20001;-84
2022/09/10 06:04:59;;;;;;;2.00;0.60;;;14.80;99.00;;;;;;6195408;23;20008;-83
2022/09/10 06:07:27;;;;;;;1.40;0.43;;;14.80;99.00;;;;;;6194133;23;20012;-83
2022/09/10 06:09:53;;;;;;;0.65;0.50;;;14.80;98.50;;;;;;6197342;23;19997;-84
2022/09/10 06:12:18;;;;;;;2.75;0.60;;;14.80;98.40;;;;;;6195968;23;20012;-85
2022/09/10 06:14:44;;;;;;;0.95;0.50;;;14.80;98.50;;;;;;6196353;23;20333;-84
2022/09/10 06:17:10;;;;;;;1.40;0.65;;;14.90;98.50;;;;;;6197300;23;20025;-84
2022/09/10 06:19:35;;;;;;;2.15;0.47;;;14.90;98.70;;;;;;6192693;23;20004;-84
2022/09/10 06:22:01;;;;;;;0.40;0.40;;;14.90;99.30;;;;;;6163251;23;20001;-84
2022/09/10 06:24:27;;;;;;;2.40;0.80;;;14.70;99.90;;;;;;6189399;23;20005;-85
2022/09/10 06:26:52;;;;;;;1.65;0.55;;;14.60;99.90;;;;;;6188278;23;20033;-84
2022/09/10 06:29:18;;;;;;;2.67;0.70;;;14.50;99.90;;;;;;6188167;23;20312;-84
2022/09/10 06:31:46;;;;;;;3.70;0.90;;;14.40;99.90;;;;;;6187742;23;20005;-84
2022/09/10 06:34:11;;;;;;;2.10;0.70;;;14.20;99.90;;;;;;6188392;23;20005;-85
2022/09/10 06:36:37;;;;;;;0.60;0.60;;;14.00;99.90;;;;;;6187278;23;20040;-84
2022/09/10 06:39:03;;;;;;;0.88;0.57;;;13.90;99.90;;;;;;6187861;23;20001;-85
2022/09/10 06:41:29;;;;;;;0.88;0.50;;;13.80;99.90;;;;;;6188347;23;20001;-85
2022/09/10 06:43:56;;;;;;;1.05;0.70;;;13.80;99.90;;;;;;6161827;23;20001;-84
2022/09/10 06:46:22;;;;;;;3.33;0.80;;;13.70;99.90;;;;;;6188044;23;20067;-84
2022/09/10 06:48:48;;;;;;;1.73;0.60;;;13.70;99.90;;;;;;6188612;23;20394;-83
2022/09/10 06:51:15;;;;;;;3.40;0.70;;;13.60;99.90;;;;;;6187510;23;19997;-84
2022/09/10 06:53:42;;;;;;;4.38;0.90;;;13.70;99.90;;;;;;6187142;23;20016;-82
2022/09/10 06:56:10;;;;;;;1.02;0.65;;;13.60;99.90;;;;;;6215155;23;20020;-83
2022/09/10 06:58:37;;;;;;;2.50;0.60;;;13.60;99.90;;;;;;6191329;23;20001;-83
2022/09/10 07:01:17;;;;;;;1.73;0.80;;;13.60;99.90;;;;;;6193494;23;20001;-84
2022/09/10 07:03:44;;;;;;;1.08;0.60;;;13.60;99.90;;;;;;6191961;23;20044;-83
2022/09/10 07:06:14;;;;;;;0.88;0.52;;;13.50;99.90;;;;;;6216249;23;20321;-83
2022/09/10 07:08:40;;;;;;;1.83;0.60;;;13.60;99.90;;;;;;6218229;22;20013;-83
2022/09/10 07:11:11;;;;;;;1.98;0.52;;;13.60;99.90;;;;;;6218643;23;20011;-83
2022/09/10 07:13:38;;;;;;;1.30;0.70;;;13.70;99.90;;;;;;6207944;23;20005;-83
2022/09/10 07:16:05;;;;;;;2.55;0.60;;;13.80;99.90;;;;;;6208697;23;20016;-83
2022/09/10 07:18:32;;;;;;;0.88;0.50;;;13.90;99.90;;;;;;6232433;23;20070;-84
2022/09/10 07:21:11;;;;;;;1.25;0.60;;;14.10;99.90;;;;;;6221459;23;20008;-84
2022/09/10 07:23:38;;;;;;;0.95;0.63;;;14.30;99.90;;;;;;6227583;23;20027;-83
2022/09/10 07:26:21;;;;;;;0.77;0.77;;;14.40;99.90;;;;;;6210590;22;20008;-83
2022/09/10 07:28:47;;;;;;;1.35;0.70;;;14.60;99.90;;;;;;6196303;22;20025;-83
2022/09/10 07:31:16;;;;;;;0.68;0.50;;;14.80;99.90;;;;;;6193798;23;20046;-84
2022/09/10 07:33:42;;;;;;;1.27;0.55;;;15.00;99.90;;;;;;6195336;23;19997;-83
2022/09/10 07:36:09;;;;;;;0.38;0.38;;;15.30;99.90;;;;;;6219304;22;20025;-83
2022/09/10 07:38:36;;;;;;;1.73;0.50;;;15.60;99.90;;;;;;6196287;23;20058;-83
2022/09/10 07:41:02;;;;;;;1.20;0.57;;;15.80;99.90;;;;;;6225597;23;20007;-82
2022/09/10 07:43:28;;;;;;;1.35;0.50;;;16.00;99.90;;;;;;6197533;23;20005;-83
2022/09/10 07:45:54;;;;;;;1.38;0.50;;;16.10;99.90;;;;;;6194582;23;20001;-84
2022/09/10 07:48:20;;;;;;;1.35;0.40;;;16.40;99.90;;;;;;6192994;23;20424;-83
2022/09/10 07:50:46;;;;;;;0.73;0.28;;;16.60;99.90;;;;;;6192891;23;20005;-84
2022/09/10 07:53:11;;;;;;;0.32;0.30;;;16.60;99.90;;;;;;6198709;23;19992;-83
2022/09/10 07:55:37;;;;;;;1.38;0.55;;;16.60;99.90;;;;;;6196229;23;20005;-83
2022/09/10 07:58:02;;;;;;;1.42;0.40;;;16.60;99.90;;;;;;6196152;23;20001;-82
2022/09/10 08:00:28;;;;;;;1.73;0.38;;;16.50;99.90;;;;;;6196914;23;20102;-84
2022/09/10 08:02:54;;;;;;;2.83;0.60;;;16.50;99.90;;;;;;6221975;23;20022;-83
2022/09/10 08:05:20;;;;;;;1.10;0.40;;;16.40;99.90;;;;;;6221812;23;20026;-84
2022/09/10 08:07:45;;;;;;;0.75;0.40;;;16.40;99.90;;;;;;6223833;23;20313;-83
2022/09/10 08:10:12;;;;;;;2.35;0.50;;;16.30;99.90;;;;;;6196039;23;20004;-84
2022/09/10 08:12:39;;;;;;;2.08;0.50;;;16.20;99.90;;;;;;6221204;23;20016;-83
2022/09/10 08:15:06;;;;;;;0.65;0.60;;;16.20;99.90;;;;;;6222781;23;20005;-84
2022/09/10 08:17:33;;;;;;;1.63;0.52;;;16.00;99.90;;;;;;6223357;23;20001;-84
2022/09/10 08:19:59;;;;;;;0.30;0.20;;;15.80;99.90;;;;;;6224264;23;19997;-84
2022/09/10 08:22:25;;;;;;;3.05;0.60;;;15.70;99.90;;;;;;6196765;22;20013;-84
2022/09/10 08:24:50;;;;;;;1.27;0.70;;;15.60;99.90;;;;;;6195190;23;20389;-84
2022/09/10 08:27:16;;;;;;;1.02;0.32;;;15.60;99.90;;;;;;6194898;23;20011;-84
2022/09/10 08:29:42;;;;;;;1.08;0.43;;;15.70;99.90;;;;;;6223246;23;20053;-86
2022/09/10 08:32:11;;;;;;;1.60;0.50;;;15.90;99.90;;;;;;6198096;23;20007;-84
2022/09/10 08:34:37;;;;;;;0.50;0.47;;;16.10;99.90;;;;;;6224803;22;20040;-84
2022/09/10 08:37:03;;;;;;;0.85;0.65;;;16.30;99.90;;;;;;6195993;23;20003;-84
2022/09/10 08:39:30;;;;;;;0.95;0.45;;;16.20;99.90;;;;;;6195794;23;20001;-83
2022/09/10 08:42:21;;;;;;;0.85;0.60;;;16.00;99.90;;;;;;6195078;23;20047;-86
2022/09/10 08:44:49;;;;;;;1.08;0.52;;;15.90;99.90;;;;;;6223485;23;20001;-85
2022/09/10 08:47:26;;;;;;;0.40;0.40;;;16.00;99.90;;;;;;6224165;23;20060;-85
2022/09/10 08:49:59;;;;;;;1.45;0.60;;;16.50;99.90;;;;;;6224110;23;20074;-84
2022/09/10 08:52:39;;;;;;;2.15;0.45;;;17.20;99.90;;;;;;6198952;23;20004;-85
2022/09/10 08:55:16;;;;;;;1.35;0.43;;;18.20;99.90;;;;;;6224292;23;20000;-85
2022/09/10 08:58:06;;;;;;;0.70;0.47;;;18.90;96.40;;;;;;6228826;22;19997;-85
2022/09/10 09:00:35;;;;;;;2.05;0.50;;;18.80;95.20;;;;;;6198842;23;20020;-85
2022/09/10 09:03:12;;;;;;;0.93;0.70;;;18.90;95.20;;;;;;6198617;23;20001;-84
2022/09/10 09:06:02;;;;;;;1.15;0.70;;;18.90;94.40;;;;;;6225669;22;20020;-85
2022/09/10 09:08:34;;;;;;;1.73;0.55;;;18.90;94.20;;;;;;6212829;23;20004;-85
2022/09/10 09:11:16;;;;;;;0.88;0.60;;;18.90;94.20;;;;;;6225217;23;20001;-85
2022/09/10 09:14:04;;;;;;;1.30;0.50;;;18.90;93.50;;;;;;6198382;23;20043;-85
2022/09/10 09:16:47;;;;;;;0.93;0.55;;;19.00;93.80;;;;;;6200467;23;20012;-85
2022/09/10 09:19:35;;;;;;;2.20;0.82;;;19.20;93.30;;;;;;6197980;23;20013;-85
2022/09/10 09:22:29;;;;;;;1.98;0.60;;;19.40;92.00;;;;;;6201191;23;20091;-85
2022/09/10 09:24:57;;;;;;;1.05;0.50;;;19.40;91.30;;;;;;6174578;23;20004;-85
2022/09/10 09:27:28;;;;;;;0.47;0.43;;;19.10;91.30;;;;;;6198516;23;20009;-85
2022/09/10 09:30:01;;;;;;;1.38;0.65;;;18.60;91.80;;;;;;6231423;23;20001;-86
2022/09/10 09:32:32;;;;;;;0.77;0.77;;;18.20;93.10;;;;;;6227122;23;20007;-84
2022/09/10 09:35:22;;;;;;;0.80;0.65;;;18.20;94.50;;;;;;6225743;23;20015;-85
2022/09/10 09:37:56;;;;;;;0.45;0.45;;;18.50;94.10;;;;;;6224922;23;20555;-85
2022/09/10 09:40:30;;;;;;;1.00;0.60;;;18.70;93.60;;;;;;6199104;23;20036;-84
2022/09/10 09:43:22;;;;;;;0.57;0.45;;;19.00;93.50;;;;;;6227148;23;20095;-84
2022/09/10 09:45:51;;;;;;;0.77;0.50;;;19.30;92.80;;;;;;6198317;23;20032;-84
2022/09/10 09:48:19;;;;;;;1.48;0.50;;;19.40;91.80;;;;;;6223833;23;20015;-84
2022/09/10 09:50:48;;;;;;;3.65;0.80;;;19.30;91.60;;;;;;6199356;23;20100;-85
2022/09/10 09:53:25;;;;;;;1.60;0.63;;;19.20;91.50;;;;;;6225409;23;20013;-85
2022/09/10 09:55:55;;;;;;;2.40;0.95;;;18.90;92.20;;;;;;6198453;23;20004;-84
2022/09/10 09:58:20;;;;;;;1.77;0.90;;;18.70;92.90;;;;;;6201074;23;20000;-83
2022/09/10 10:01:12;;;;;;;1.60;0.60;;;18.50;93.20;;;;;;6230168;23;20063;-83
2022/09/10 10:03:47;;;;;;;0.80;0.50;;;18.30;93.70;;;;;;6225999;23;20336;-84
2022/09/10 10:06:14;;;;;;;0.52;0.52;;;18.30;93.90;;;;;;6227269;23;20035;-85
2022/09/10 10:08:54;;;;;;;0.55;0.30;;;18.20;93.80;;;;;;6205535;23;19996;-85
2022/09/10 10:11:21;;;;;;;1.08;0.63;;;18.10;93.50;;;;;;6215596;23;20212;-86
2022/09/10 10:13:51;;;;;;;2.97;1.10;;;17.80;94.10;;;;;;6227478;23;20050;-84
2022/09/10 10:16:31;;;;;;;2.97;0.82;;;17.50;95.40;;;;;;6198407;23;20008;-84
2022/09/10 10:18:56;;;;;;;1.92;1.10;;;17.10;96.40;;;;;;6198326;23;20012;-85
2022/09/10 10:21:33;;;;;;;1.35;0.73;;;16.70;97.90;;;;;;6198076;23;20020;-84
2022/09/10 10:24:02;;;;;;;2.08;1.25;;;16.40;99.20;;;;;;6205731;23;20000;-84
2022/09/10 10:26:29;;;;;;;4.43;1.52;;;16.50;99.90;;;;;;6199554;23;20004;-84
2022/09/10 10:29:06;;;;;;;1.63;0.95;;;16.50;99.90;;;;;;6201744;22;20443;-84
2022/09/10 10:31:41;;;;;;;1.38;1.00;;;16.70;99.90;;;;;;6225453;23;20044;-85
2022/09/10 10:34:06;;;;;;;3.10;1.00;;;16.90;99.90;;;;;;6198089;23;20016;-85
2022/09/10 10:36:52;;;;;;;1.58;0.90;;;17.10;99.40;;;;;;6225806;23;20008;-84
2022/09/10 10:39:40;;;;;;;2.25;1.25;;;17.40;99.30;;;;;;6224052;23;20005;-84
2022/09/10 10:42:21;;;;;;;1.63;1.20;;;17.90;98.50;;;;;;6226005;23;20339;-83
2022/09/10 10:45:25;;;;;;;2.65;0.90;;;18.70;96.30;;;;;;6197694;23;20372;-84
2022/09/10 10:48:00;;;;;;;3.67;1.65;;;19.40;94.90;;;;;;6223871;23;19996;-85
2022/09/10 10:50:29;;;;;;;1.92;0.77;;;19.90;93.30;;;;;;6196856;23;20005;-85
2022/09/10 10:53:17;;;;;;;1.38;0.95;;;20.30;91.10;;;;;;6195092;23;20059;-84
2022/09/10 10:56:01;;;;;;;1.38;0.80;;;20.60;90.50;;;;;;6223574;23;20008;-85
2022/09/10 10:58:47;;;;;;;3.15;0.60;;;21.00;89.50;;;;;;6220815;23;20032;-84
2022/09/10 11:01:28;;;;;;;1.65;0.80;;;21.50;87.30;;;;;;6223332;23;20035;-83
2022/09/10 11:03:59;;;;;;;0.93;0.70;;;21.50;81.80;;;;;;6196407;23;20011;-86
2022/09/10 11:06:30;;;;;;;2.42;0.70;;;21.10;83.00;;;;;;6196090;23;20004;-83
2022/09/10 11:09:05;;;;;;;1.27;0.80;;;20.50;85.20;;;;;;6196056;23;20005;-84
2022/09/10 11:11:43;;;;;;;1.40;0.80;;;19.90;88.40;;;;;;6224536;22;20013;-84
2022/09/10 11:14:34;;;;;;;0.80;0.68;;;19.60;90.20;;;;;;6222452;23;20076;-85
2022/09/10 11:17:14;;;;;;;4.17;1.03;;;19.50;90.10;;;;;;6224903;22;19985;-86
2022/09/10 11:20:11;;;;;;;1.65;0.93;;;19.60;90.00;;;;;;6223418;23;20269;-83
2022/09/10 11:22:50;;;;;;;1.58;0.57;;;20.10;89.20;;;;;;6196935;23;20008;-85
2022/09/10 11:25:23;;;;;;;1.38;0.55;;;20.50;85.30;;;;;;6223968;23;20001;-85
2022/09/10 11:28:14;;;;;;;1.58;0.73;;;20.80;84.40;;;;;;6223704;23;20450;-83
2022/09/10 11:30:45;;;;;;;1.75;0.77;;;20.80;79.80;;;;;;6195563;23;20082;-83
2022/09/10 11:33:50;;;;;;;0.95;0.30;;;21.00;78.20;;;;;;6196225;23;20012;-84
2022/09/10 11:36:32;;;;;;;1.90;0.80;;;21.40;75.70;;;;;;6225136;23;20001;-85
2022/09/10 11:39:17;;;;;;;1.38;0.60;;;21.70;72.80;;;;;;6224549;23;20031;-85
2022/09/10 11:41:47;;;;;;;0.45;0.40;;;21.80;71.10;;;;;;6199859;23;20384;-84
2022/09/10 11:44:16;;;;;;;0.65;0.30;;;22.10;71.20;;;;;;6195726;23;20005;-83
2022/09/10 11:47:10;;;;;;;2.83;0.70;;;22.20;69.00;;;;;;6194014;23;20009;-84
2022/09/10 11:50:10;;;;;;;1.08;0.43;;;22.10;70.30;;;;;;6221973;23;20006;-85
2022/09/10 11:52:37;;;;;;;1.83;0.50;;;22.10;68.70;;;;;;6225758;23;20016;-85
2022/09/10 11:55:07;;;;;;;0.63;0.60;;;22.30;68.70;;;;;;6196716;23;20016;-85
2022/09/10 11:57:51;;;;;;;4.30;0.70;;;22.40;68.60;;;;;;6224732;23;20020;-84
2022/09/10 12:00:18;;;;;;;1.02;0.70;;;22.50;67.00;;;;;;6195939;22;20464;-85
2022/09/10 12:02:46;;;;;;;1.38;0.70;;;22.30;68.20;;;;;;6225054;23;20020;-85
2022/09/10 12:05:22;;;;;;;0.98;0.95;;;22.10;68.30;;;;;;6225737;23;20020;-85
2022/09/10 12:08:07;;;;;;;1.50;0.75;;;22.20;67.50;;;;;;6223249;23;19997;-84
2022/09/10 12:10:32;;;;;;;3.63;0.80;;;22.50;67.00;;;;;;6196833;23;20320;-85
2022/09/10 12:12:58;;;;;;;1.50;0.75;;;22.40;65.30;;;;;;6203803;23;20019;-85
2022/09/10 12:15:29;;;;;;;0.75;0.45;;;22.00;64.00;;;;;;6210463;23;20015;-86
2022/09/10 12:18:03;;;;;;;1.73;0.80;;;21.60;66.30;;;;;;6197590;23;20652;-85
2022/09/10 12:20:37;;;;;;;1.27;0.60;;;21.60;66.40;;;;;;6199386;23;20228;-84
2022/09/10 12:23:03;;;;;;;2.65;0.60;;;21.40;66.10;;;;;;6198957;23;20088;-85
2022/09/10 12:25:32;;;;;;;1.08;0.65;;;21.20;65.50;;;;;;6226567;23;20004;-85
2022/09/10 12:28:00;;;;;;;0.32;0.32;;;21.10;66.80;;;;;;6226221;23;20005;-84
2022/09/10 12:30:30;;;;;;;2.38;0.77;;;21.20;66.20;;;;;;6198161;23;20000;-84
2022/09/10 12:33:15;;;;;;;0.85;0.80;;;21.40;66.50;;;;;;6200157;23;20004;-83
2022/09/10 12:35:46;;;;;;;1.45;0.98;;;21.70;67.20;;;;;;6225497;23;20008;-84
2022/09/10 12:38:43;;;;;;;4.03;0.63;;;21.90;65.40;;;;;;6225068;23;20072;-84
2022/09/10 12:41:35;;;;;;;1.63;0.60;;;21.80;66.20;;;;;;6201568;23;20232;-84
2022/09/10 12:44:35;;;;;;;1.38;0.60;;;21.70;65.50;;;;;;6210853;23;20028;-86
2022/09/10 12:47:16;;;;;;;0.95;0.60;;;21.30;66.60;;;;;;6208683;22;20432;-83
2022/09/10 12:49:49;;;;;;;1.25;0.70;;;21.40;68.00;;;;;;6216190;22;20009;-86
2022/09/10 12:52:37;;;;;;;3.13;1.00;;;21.80;66.40;;;;;;6217447;22;20001;-86
2022/09/10 12:57:52;;;;;;;1.23;0.70;;;22.10;65.30;;;;;;6210772;23;20060;-83
2022/09/10 13:00:29;;;;;;;2.53;0.40;;;22.40;63.10;;;;;;6185214;23;20028;-83
2022/09/10 13:03:05;;;;;;;1.35;0.50;;;22.30;61.40;;;;;;6186176;23;19989;-82
2022/09/10 13:05:43;;;;;;;1.25;0.60;;;22.20;62.40;;;;;;6156522;23;20009;-81
2022/09/10 13:08:14;;;;;;;3.15;0.40;;;22.40;62.50;;;;;;6182112;23;20009;-81
2022/09/10 13:10:48;;;;;;;1.98;0.80;;;22.50;61.50;;;;;;6155889;23;19993;-82
2022/09/10 13:13:45;;;;;;;1.60;0.55;;;22.10;62.50;;;;;;6181674;23;20009;-82
2022/09/10 13:16:26;;;;;;;1.80;1.17;;;22.00;62.50;;;;;;6160162;23;20006;-81
2022/09/10 13:18:53;;;;;;;1.67;0.80;;;21.70;62.60;;;;;;6155861;23;19998;-83
2022/09/10 13:21:24;;;;;;;2.72;0.60;;;21.30;63.80;;;;;;6181706;23;20000;-81
2022/09/10 13:23:55;;;;;;;1.10;0.60;;;20.90;65.10;;;;;;6181355;23;20057;-82
2022/09/10 13:26:30;;;;;;;1.75;0.63;;;20.80;66.10;;;;;;6166743;23;20463;-84
2022/09/10 13:28:57;;;;;;;1.88;0.50;;;20.60;66.50;;;;;;6163115;23;20050;-83
2022/09/10 13:31:27;;;;;;;1.70;0.70;;;20.50;67.70;;;;;;6136222;23;20012;-84
2022/09/10 13:34:12;;;;;;;1.27;0.68;;;20.50;68.00;;;;;;6163678;23;20343;-84
2022/09/10 13:37:07;;;;;;;2.17;0.50;;;20.80;67.40;;;;;;6137745;23;20036;-83
2022/09/10 13:39:53;;;;;;;0.52;0.47;;;20.90;66.10;;;;;;6137282;23;20009;-83
2022/09/10 13:42:37;;;;;;;0.93;0.57;;;21.10;66.80;;;;;;6139978;23;20085;-83
2022/09/10 13:45:20;;;;;;;1.40;0.50;;;21.20;64.60;;;;;;6142419;23;20032;-82
2022/09/10 13:48:05;;;;;;;0.52;0.50;;;20.90;65.90;;;;;;6175418;23;19986;-81